ETOU

Wiesbaden Army Airfield Airport

Wiesbaden, Germany
METAR ETOU 201256Z AUTO 03003KT 9999 CLR 17/07 A3039 RMK AO2 SLP292 T01720073 $
Observed Flight Rules
Oct-20 @ 12:56 UTC (15 minutes ago) Visual Flight Rules
Wind Visibility Clouds
30° at 3 knots 10,000+ meters
  • Clear skies
Temperatures Readings
Current 17°C / 63°F
Dewpoint 7°C / 45°F
Humidity 52%
Altimeter 30.39" Hg
Pressure 1029.2 hPa
Elevation 141
METAR ETOU 201256Z AUTO 03003KT 9999 CLR 17/07 A3039 RMK AO2 SLP292 T01720073 $
Observed Flight Rules
Oct-20 @ 12:56 UTC
(15 minutes ago)
VFR
Wind Visibility
30° at 3 knots 10,000+ meters
Clouds
  • Clear skies
Temperature Dewpoint
17°C / 63°F 7°C / 45°F
Humidity Altimeter Pressure
52% 30.39" Hg 1029.2 hPa